.
WxDataArchive / Data Records for 2013-05-01
2013-04-30 May 2013 2013-05-02

Data Records for Wednesday, 01 May 2013

Time	Temp	Chill	HIndex	Humid	Dewpt	 Wind 	HiWind	WindDir	Rain 	Barom 
-----	----	-----	------	-----	-----	------	------	-------	-----	----- 
00:00	61.5	61.5	61.5	74	53.1	0	0	---	0.00	30.017 
00:05	61.3	61.3	61.3	74	52.9	0	0	---	0.00	30.017 
00:10	61.2	61.2	61.2	74	52.8	0	0	---	0.00	30.017 
00:15	60.9	60.9	60.9	75	52.9	0	0	---	0.00	30.021 
00:20	60.5	60.5	60.5	76	52.9	0	0	---	0.00	30.021 
00:25	60.2	60.2	60.2	77	53.0	0	0	---	0.00	30.021 
00:30	60.1	60.1	60.1	77	52.9	0	0	---	0.00	30.018 
00:35	59.9	59.9	59.9	77	52.7	0	0	---	0.00	30.018 
00:40	59.9	59.9	59.9	77	52.7	0	0	---	0.00	30.018 
00:45	59.9	59.9	59.9	77	52.7	0	0	---	0.00	30.019 
00:50	60.1	60.1	60.1	76	52.5	0	1	112	0.00	30.019 
00:55	60.4	60.4	60.4	75	52.4	0	1	112	0.00	30.019 
01:00	60.7	60.7	60.7	74	52.4	0	1	112	0.00	30.020 
01:05	60.9	60.9	60.9	73	52.2	0	1	112	0.00	30.020 
01:10	61.0	61.0	61.0	73	52.3	0	1	112	0.00	30.020 
01:15	61.3	61.3	61.3	73	52.6	0	1	112	0.00	30.019 
01:20	61.5	61.5	61.5	72	52.4	0	1	112	0.00	30.019 
01:25	61.6	61.6	61.6	71	52.1	0	1	112	0.00	30.019 
01:30	61.6	61.6	61.6	71	52.1	0	1	112	0.00	30.021 
01:35	61.6	61.6	61.6	71	52.1	0	1	112	0.00	30.021 
01:40	61.6	61.6	61.6	71	52.1	0	1	112	0.00	30.021 
01:45	61.5	61.5	61.5	71	52.0	0	1	112	0.00	30.022 
01:50	61.3	61.3	61.3	71	51.8	0	1	112	0.00	30.022 
01:55	61.2	61.2	61.2	71	51.7	0	0	---	0.00	30.022 
02:00	60.9	60.9	60.9	72	51.8	0	1	112	0.00	30.025 
02:05	60.5	60.5	60.5	72	51.4	0	0	---	0.00	30.025 
02:10	60.4	60.4	60.4	73	51.7	0	0	---	0.00	30.025 
02:15	59.9	59.9	59.9	73	51.2	0	0	---	0.00	30.024 
02:20	59.6	59.6	59.6	74	51.3	0	0	---	0.00	30.024 
02:25	59.2	59.2	59.2	75	51.3	0	0	---	0.00	30.024 
02:30	58.6	58.6	58.6	77	51.4	0	0	---	0.00	30.025 
02:35	58.3	58.3	58.3	77	51.1	0	0	---	0.00	30.025 
02:40	57.8	57.8	57.8	78	51.0	0	0	---	0.00	30.025 
02:45	57.5	57.5	57.5	78	50.7	0	0	---	0.00	30.025 
02:50	57.0	57.0	57.0	80	50.9	0	0	---	0.00	30.025 
02:55	56.7	56.7	56.7	81	50.9	0	0	---	0.00	30.025 
03:00	56.6	56.6	56.6	81	50.8	0	0	---	0.00	30.028 
03:05	56.3	56.3	56.3	81	50.5	0	0	---	0.00	30.028 
03:10	56.0	56.0	56.0	82	50.6	0	0	---	0.00	30.028 
03:15	55.9	55.9	55.9	82	50.5	0	0	---	0.00	30.035 
03:20	55.6	55.6	55.6	83	50.5	0	0	---	0.00	30.035 
03:25	55.3	55.3	55.3	84	50.5	0	0	---	0.00	30.035 
03:30	55.1	55.1	55.1	84	50.4	0	0	---	0.00	30.040 
03:35	55.1	55.1	55.1	85	50.7	0	0	---	0.00	30.040 
03:40	55.0	55.0	55.0	86	50.9	0	0	---	0.00	30.040 
03:45	54.8	54.8	54.8	86	50.7	0	0	---	0.00	30.042 
03:50	54.8	54.8	54.8	87	51.0	0	0	---	0.00	30.042 
03:55	54.7	54.7	54.7	88	51.2	0	0	---	0.00	30.042 
04:00	54.4	54.4	54.4	88	50.9	0	0	---	0.00	30.045 
04:05	54.1	54.1	54.1	88	50.6	0	0	---	0.00	30.045 
04:10	53.8	53.8	53.8	88	50.3	0	0	---	0.00	30.045 
04:15	53.6	53.6	53.6	88	50.1	0	0	---	0.00	30.050 
04:20	53.5	53.5	53.5	89	50.3	0	0	---	0.00	30.050 
04:25	53.2	53.2	53.2	89	50.0	0	0	---	0.00	30.050 
04:30	53.1	53.1	53.1	89	49.9	0	0	---	0.00	30.059 
04:35	52.8	52.8	52.8	89	49.6	0	0	---	0.00	30.059 
04:40	52.6	52.6	52.6	90	49.7	0	0	---	0.00	30.059 
04:45	52.6	52.6	52.6	90	49.7	0	0	---	0.00	30.061 
04:50	52.5	52.5	52.5	90	49.7	0	0	---	0.00	30.061 
04:55	52.3	52.3	52.3	90	49.5	0	0	---	0.00	30.061 
05:00	52.2	52.2	52.2	90	49.4	0	0	---	0.00	30.062 
05:05	51.9	51.9	51.9	91	49.4	0	0	---	0.00	30.062 
05:10	51.7	51.7	51.7	91	49.2	0	0	---	0.00	30.062 
05:15	51.6	51.6	51.6	91	49.1	0	0	---	0.00	30.065 
05:20	51.6	51.6	51.6	91	49.1	0	0	---	0.00	30.065 
05:25	51.6	51.6	51.6	91	49.1	0	0	---	0.00	30.065 
05:30	51.4	51.4	51.4	91	48.9	0	0	---	0.00	30.075 
05:35	51.4	51.4	51.4	91	48.9	0	0	---	0.00	30.075 
05:40	51.3	51.3	51.3	92	49.1	0	0	---	0.00	30.075 
05:45	51.1	51.1	51.1	92	48.9	0	0	---	0.00	30.079 
05:50	51.1	51.1	51.1	92	48.9	0	0	---	0.00	30.079 
05:55	51.0	51.0	51.0	92	48.8	0	0	---	0.00	30.079 
06:00	50.8	50.8	50.8	92	48.6	0	0	---	0.00	30.085 
06:05	50.7	50.7	50.7	92	48.5	0	0	---	0.00	30.085 
06:10	50.5	50.5	50.5	92	48.3	0	0	---	0.00	30.085 
06:15	50.4	50.4	50.4	92	48.2	0	0	---	0.00	30.096 
06:20	50.2	50.2	50.2	92	48.0	0	0	---	0.00	30.096 
06:25	50.1	50.1	50.1	92	47.9	0	0	---	0.00	30.096 
06:30	49.9	49.9	49.9	92	47.7	0	0	---	0.00	30.104 
06:35	49.9	49.9	49.9	92	47.7	0	0	---	0.00	30.104 
06:40	49.8	49.8	49.8	92	47.6	0	0	---	0.00	30.104 
06:45	49.8	49.8	49.8	92	47.6	0	0	---	0.00	30.111 
06:50	49.6	49.6	49.6	92	47.4	0	0	---	0.00	30.111 
06:55	49.5	49.5	49.5	93	47.6	0	0	---	0.00	30.111 
07:00	49.6	49.6	49.6	93	47.7	0	0	---	0.00	30.115 
07:05	49.6	49.6	49.6	93	47.7	0	0	---	0.00	30.115 
07:10	49.6	49.6	49.6	93	47.7	0	0	---	0.00	30.115 
07:15	49.8	49.8	49.8	93	47.9	0	0	---	0.00	30.121 
07:20	49.9	49.9	49.9	93	48.0	0	0	---	0.00	30.121 
07:25	50.1	50.1	50.1	93	48.2	0	0	---	0.00	30.121 
07:30	50.4	50.4	50.4	94	48.7	0	0	---	0.00	30.126 
07:35	51.0	51.0	51.0	94	49.3	0	0	---	0.00	30.126 
07:40	51.6	51.6	51.6	94	49.9	0	0	---	0.00	30.126 
07:45	52.3	52.3	52.3	95	50.9	0	0	---	0.00	30.126 
07:50	53.6	53.6	53.6	95	52.2	0	0	---	0.00	30.126 
07:55	54.8	54.8	54.8	95	53.4	0	0	---	0.00	30.126 
08:00	56.0	56.0	56.0	93	54.0	0	1	112	0.00	30.131 
08:05	56.9	56.9	56.9	92	54.6	0	1	112	0.00	30.131 
08:10	58.0	58.0	58.0	89	54.8	0	1	112	0.00	30.131 
08:15	58.9	58.9	58.9	86	54.7	0	2	112	0.00	30.137 
08:20	59.6	59.6	59.6	83	54.4	0	2	112	0.00	30.137 
08:25	60.4	60.4	60.4	80	54.2	0	1	112	0.00	30.137 
08:30	61.0	61.0	61.0	78	54.1	1	2	112	0.00	30.136 
08:35	61.5	61.5	61.5	76	53.9	1	2	112	0.00	30.136 
08:40	62.3	62.3	62.3	74	53.9	0	1	112	0.00	30.136 
08:45	63.1	63.1	63.1	73	54.3	0	2	112	0.00	30.135 
08:50	63.7	63.7	63.7	71	54.1	0	2	112	0.00	30.135 
08:55	64.0	64.0	64.0	71	54.4	1	2	112	0.00	30.135 
09:00	64.3	64.3	64.3	70	54.3	1	3	112	0.00	30.137 
09:05	65.0	65.0	65.0	69	54.6	1	2	112	0.00	30.137 
09:10	65.5	65.5	65.5	69	55.1	1	2	112	0.00	30.137 
09:15	65.8	65.8	65.8	68	54.9	1	3	112	0.00	30.139 
09:20	66.3	66.3	66.3	68	55.4	1	3	112	0.00	30.139 
09:25	66.6	66.6	66.6	68	55.7	1	3	112	0.00	30.139 
09:30	66.9	66.9	66.9	69	56.4	1	3	112	0.00	30.144 
09:35	67.3	67.3	67.3	67	56.0	1	3	112	0.00	30.144 
09:40	67.9	67.9	67.9	65	55.7	1	2	112	0.00	30.144 
09:45	68.6	68.6	68.6	64	55.9	1	3	112	0.00	30.145 
09:50	69.3	69.3	69.3	62	55.7	1	4	112	0.00	30.145 
09:55	69.4	69.4	69.4	64	56.7	1	4	112	0.00	30.145 
10:00	69.6	69.6	69.6	63	56.4	2	6	112	0.00	30.141 
10:05	70.1	70.1	70.1	63	56.9	1	3	112	0.00	30.141 
10:10	70.6	70.6	70.6	61	56.5	2	4	112	0.00	30.141 
10:15	70.9	70.9	70.9	61	56.8	1	5	112	0.00	30.143 
10:20	71.6	71.6	71.6	59	56.5	1	2	112	0.00	30.143 
10:25	72.3	72.3	72.3	58	56.7	0	2	112	0.00	30.143 
10:30	72.8	72.8	72.8	57	56.7	1	5	90	0.00	30.143 
10:35	73.0	73.0	73.0	56	56.4	2	4	90	0.00	30.143 
10:40	73.2	73.2	73.2	56	56.5	2	4	90	0.00	30.143 
10:45	73.7	73.7	73.7	54	56.0	1	4	90	0.00	30.144 
10:50	74.4	74.4	74.4	54	56.7	1	3	90	0.00	30.144 
10:55	75.1	75.1	77.7	51	55.7	1	2	90	0.00	30.144 
11:00	75.4	75.4	77.8	49	54.9	2	5	90	0.00	30.143 
11:05	75.4	75.4	77.8	51	56.0	1	5	90	0.00	30.143 
11:10	75.8	75.8	78.0	50	55.8	1	6	90	0.00	30.143 
11:15	76.0	76.0	78.0	47	54.3	2	4	90	0.00	30.145 
11:20	76.5	76.5	78.3	51	57.0	0	2	90	0.00	30.145 
11:25	77.0	77.0	78.6	49	56.4	2	4	90	0.00	30.145 
11:30	77.2	77.2	78.6	46	54.8	1	4	68	0.00	30.146 
11:35	77.6	77.6	78.9	48	56.3	1	3	135	0.00	30.146 
11:40	77.9	77.9	78.9	45	54.8	1	3	135	0.00	30.146 
11:45	77.7	77.7	78.9	46	55.2	2	5	112	0.00	30.147 
11:50	77.6	77.6	78.8	46	55.2	2	4	112	0.00	30.147 
11:55	77.6	77.6	78.8	46	55.2	2	4	112	0.00	30.147 
12:00	77.7	77.7	78.8	44	54.0	2	4	112	0.00	30.145 
12:05	77.7	77.7	78.8	45	54.6	2	4	112	0.00	30.145 
12:10	77.9	77.9	79.0	46	55.4	2	6	90	0.00	30.145 
12:15	77.9	77.9	78.8	43	53.6	2	5	90	0.00	30.146 
12:20	78.3	78.3	79.3	48	57.0	1	4	90	0.00	30.146 
12:25	78.8	78.8	79.4	43	54.4	1	3	90	0.00	30.146 
12:30	79.4	79.4	79.7	42	54.3	1	4	90	0.00	30.143 
12:35	79.2	79.2	79.6	43	54.7	2	6	90	0.00	30.143 
12:40	79.2	79.2	79.4	40	52.8	2	3	90	0.00	30.143 
12:45	79.4	79.4	79.5	39	52.3	1	5	112	0.00	30.142 
12:50	79.8	79.8	80.0	43	55.3	1	4	90	0.00	30.142 
12:55	80.1	80.1	80.2	42	54.9	1	3	90	0.00	30.142 
13:00	80.3	80.3	80.3	42	55.1	1	3	270	0.00	30.142 
13:05	80.3	80.3	80.1	40	53.8	1	5	112	0.00	30.142 
13:10	80.3	80.3	80.7	46	57.6	1	5	90	0.00	30.142 
13:15	80.3	80.3	80.1	39	53.1	1	4	90	0.00	30.141 
13:20	80.1	80.1	80.1	41	54.2	2	3	90	0.00	30.141 
13:25	80.1	80.1	79.8	38	52.2	1	4	90	0.00	30.141 
13:30	80.3	80.3	80.1	39	53.1	1	4	90	0.00	30.142 
13:35	80.1	80.1	79.9	39	52.9	2	5	68	0.00	30.142 
13:40	79.9	79.9	80.0	42	54.7	1	3	68	0.00	30.142 
13:45	80.3	80.3	80.4	43	55.7	1	4	68	0.00	30.139 
13:50	80.5	80.5	80.2	39	53.2	2	5	90	0.00	30.139 
13:55	80.7	80.7	80.3	39	53.4	2	4	112	0.00	30.139 
14:00	81.1	81.1	80.5	38	53.1	1	4	90	0.00	30.136 
14:05	81.2	81.2	80.8	40	54.6	1	4	90	0.00	30.136 
14:10	81.4	81.4	81.1	41	55.4	1	2	68	0.00	30.136 
14:15	81.6	81.6	80.9	38	53.5	2	7	90	0.00	30.140 
14:20	82.0	82.0	81.7	42	56.6	1	3	45	0.00	30.140 
14:25	82.0	82.0	81.6	41	55.9	1	6	45	0.00	30.140 
14:30	81.8	81.8	80.9	36	52.2	2	6	112	0.00	30.140 
14:35	81.6	81.6	81.2	41	55.6	3	7	90	0.00	30.140 
14:40	81.2	81.2	80.6	38	53.1	2	5	90	0.00	30.140 
14:45	81.6	81.6	81.2	41	55.6	2	6	135	0.00	30.140 
14:50	81.2	81.2	80.6	38	53.1	2	5	90	0.00	30.140 
14:55	81.6	81.6	81.2	41	55.6	2	5	112	0.00	30.140 
15:00	82.2	82.2	81.5	39	54.7	2	6	112	0.00	30.136 
15:05	82.2	82.2	81.2	36	52.6	2	9	112	0.00	30.136 
15:10	82.2	82.2	81.4	38	54.0	1	4	90	0.00	30.136 
15:15	82.4	82.4	81.9	41	56.3	2	5	112	0.00	30.137 
15:20	82.6	82.6	81.6	37	53.7	2	9	112	0.00	30.137 
15:25	82.4	82.4	81.3	36	52.7	2	6	45	0.00	30.137 
15:30	82.8	82.8	82.6	43	58.0	1	5	112	0.00	30.135 
15:35	82.8	82.8	81.9	38	54.6	2	5	112	0.00	30.135 
15:40	82.8	82.8	81.7	36	53.1	2	6	90	0.00	30.135 
15:45	82.8	82.8	81.8	37	53.8	2	7	90	0.00	30.135 
15:50	83.0	83.0	82.0	37	54.0	2	5	90	0.00	30.135 
15:55	82.4	82.4	81.4	37	53.5	2	5	112	0.00	30.135 
16:00	82.0	82.0	81.3	39	54.6	2	5	112	0.00	30.134 
16:05	82.2	82.2	81.5	39	54.7	2	5	112	0.00	30.134 
16:10	82.6	82.6	81.4	35	52.1	1	5	112	0.00	30.134 
16:15	82.8	82.8	81.6	35	52.3	3	10	135	0.00	30.135 
16:20	82.6	82.6	81.4	35	52.1	3	6	90	0.00	30.135 
16:25	82.4	82.4	81.4	37	53.5	2	6	135	0.00	30.135 
16:30	82.2	82.2	81.4	38	54.0	2	5	90	0.00	30.138 
16:35	82.4	82.4	81.2	35	52.0	2	5	90	0.00	30.138 
16:40	82.6	82.6	81.8	39	55.1	1	4	90	0.00	30.138 
16:45	82.8	82.8	81.8	37	53.8	2	6	90	0.00	30.145 
16:50	82.8	82.8	81.4	34	51.5	2	5	112	0.00	30.145 
16:55	82.6	82.6	81.4	35	52.1	2	5	45	0.00	30.145 
17:00	82.0	82.0	81.0	36	52.4	2	7	112	0.00	30.148 
17:05	81.8	81.8	81.3	40	55.1	1	4	112	0.00	30.148 
17:10	81.6	81.6	80.8	37	52.8	2	5	112	0.00	30.148 
17:15	81.4	81.4	80.7	37	52.6	1	4	135	0.00	30.147 
17:20	81.6	81.6	80.9	38	53.5	1	3	68	0.00	30.147 
17:25	81.8	81.8	81.0	37	53.0	1	4	68	0.00	30.147 
17:30	81.6	81.6	80.9	38	53.5	1	3	90	0.00	30.151 
17:35	81.2	81.2	80.5	37	52.4	1	4	90	0.00	30.151 
17:40	81.1	81.1	80.6	39	53.8	1	4	90	0.00	30.151 
17:45	81.2	81.2	81.0	42	55.9	1	4	90	0.00	30.151 
17:50	81.2	81.2	80.8	40	54.6	2	7	90	0.00	30.151 
17:55	81.2	81.2	80.7	39	53.9	3	10	90	0.00	30.151 
18:00	81.2	81.2	80.7	39	53.9	2	5	112	0.00	30.151 
18:05	81.2	81.2	80.7	39	53.9	2	4	112	0.00	30.151 
18:10	81.1	81.1	80.5	38	53.1	2	6	90	0.00	30.151 
18:15	80.9	80.9	80.3	37	52.2	2	6	135	0.00	30.152 
18:20	80.9	80.9	80.5	39	53.6	1	4	135	0.00	30.152 
18:25	80.7	80.7	80.3	39	53.4	2	4	112	0.00	30.152 
18:30	80.7	80.7	80.3	39	53.4	2	7	90	0.00	30.150 
18:35	80.5	80.5	80.3	40	53.9	1	5	90	0.00	30.150 
18:40	80.3	80.3	80.0	38	52.4	2	3	112	0.00	30.150 
18:45	80.3	80.3	80.1	39	53.1	1	3	112	0.00	30.148 
18:50	80.3	80.3	80.0	38	52.4	2	6	90	0.00	30.148 
18:55	80.3	80.3	80.1	39	53.1	1	4	90	0.00	30.148 
19:00	80.3	80.3	80.0	38	52.4	1	3	90	0.00	30.145 
19:05	80.1	80.1	79.9	39	52.9	1	2	90	0.00	30.145 
19:10	80.1	80.1	79.8	38	52.2	1	4	90	0.00	30.145 
19:15	79.9	79.9	79.7	38	52.0	1	4	90	0.00	30.140 
19:20	79.9	79.9	79.8	39	52.7	1	4	112	0.00	30.140 
19:25	79.8	79.8	79.7	39	52.6	1	3	135	0.00	30.140 
19:30	79.6	79.6	79.7	40	53.1	1	2	112	0.00	30.136 
19:35	79.4	79.4	79.5	40	52.9	1	3	112	0.00	30.136 
19:40	79.2	79.2	79.4	40	52.8	1	4	135	0.00	30.136 
19:45	79.0	79.0	79.4	41	53.3	1	3	135	0.00	30.138 
19:50	78.8	78.8	79.3	42	53.7	0	2	135	0.00	30.138 
19:55	78.6	78.6	79.2	43	54.2	0	1	135	0.00	30.138 
20:00	78.3	78.3	79.1	43	53.9	0	1	135	0.00	30.144 
20:05	78.1	78.1	78.9	43	53.8	0	2	135	0.00	30.144 
20:10	77.7	77.7	78.8	44	54.0	0	1	135	0.00	30.144 
20:15	77.6	77.6	78.8	45	54.6	0	1	135	0.00	30.141 
20:20	77.0	77.0	78.5	46	54.6	0	1	135	0.00	30.141 
20:25	76.7	76.7	78.3	46	54.3	0	0	---	0.00	30.141 
20:30	76.3	76.3	78.2	47	54.6	0	0	---	0.00	30.144 
20:35	75.8	75.8	77.9	47	54.1	0	1	135	0.00	30.144 
20:40	75.4	75.4	77.8	48	54.3	0	1	135	0.00	30.144 
20:45	75.3	75.3	77.7	49	54.8	0	1	135	0.00	30.148 
20:50	74.9	74.9	74.9	49	54.4	0	0	---	0.00	30.148 
20:55	74.4	74.4	74.4	50	54.5	0	1	135	0.00	30.148 
21:00	74.0	74.0	74.0	50	54.2	0	0	---	0.00	30.151 
21:05	73.7	73.7	73.7	51	54.4	0	0	---	0.00	30.151 
21:10	73.2	73.2	73.2	51	54.0	0	0	---	0.00	30.151 
21:15	72.5	72.5	72.5	53	54.4	0	0	---	0.00	30.155 
21:20	72.0	72.0	72.0	54	54.4	0	0	---	0.00	30.155 
21:25	71.3	71.3	71.3	55	54.3	0	0	---	0.00	30.155 
21:30	70.8	70.8	70.8	57	54.8	0	0	---	0.00	30.160 
21:35	70.3	70.3	70.3	58	54.8	0	0	---	0.00	30.160 
21:40	69.8	69.8	69.8	59	54.8	0	0	---	0.00	30.160 
21:45	69.3	69.3	69.3	60	54.8	0	0	---	0.00	30.162 
21:50	68.9	68.9	68.9	60	54.4	0	0	---	0.00	30.162 
21:55	68.4	68.4	68.4	62	54.9	0	0	---	0.00	30.162 
22:00	68.1	68.1	68.1	62	54.6	0	0	---	0.00	30.165 
22:05	67.9	67.9	67.9	63	54.8	0	0	---	0.00	30.165 
22:10	67.6	67.6	67.6	64	55.0	0	0	---	0.00	30.165 
22:15	67.6	67.6	67.6	64	55.0	0	0	---	0.00	30.161 
22:20	67.3	67.3	67.3	65	55.1	0	0	---	0.00	30.161 
22:25	67.1	67.1	67.1	65	54.9	0	0	---	0.00	30.161 
22:30	66.9	66.9	66.9	66	55.2	0	0	---	0.00	30.163 
22:35	66.6	66.6	66.6	67	55.3	0	0	---	0.00	30.163 
22:40	66.4	66.4	66.4	68	55.5	0	0	---	0.00	30.163 
22:45	66.3	66.3	66.3	68	55.4	0	0	---	0.00	30.165 
22:50	66.0	66.0	66.0	69	55.5	0	0	---	0.00	30.165 
22:55	65.8	65.8	65.8	69	55.3	0	0	---	0.00	30.165 
23:00	65.6	65.6	65.6	69	55.1	0	0	---	0.00	30.164 
23:05	65.5	65.5	65.5	70	55.4	0	0	---	0.00	30.164 
23:10	65.3	65.3	65.3	70	55.3	0	0	---	0.00	30.164 
23:15	65.2	65.2	65.2	71	55.6	0	0	---	0.00	30.159 
23:20	65.0	65.0	65.0	71	55.4	0	0	---	0.00	30.159 
23:25	64.7	64.7	64.7	71	55.1	0	0	---	0.00	30.159 
23:30	64.5	64.5	64.5	71	54.9	0	0	---	0.00	30.159 
23:35	64.3	64.3	64.3	71	54.7	0	0	---	0.00	30.159 
23:40	64.0	64.0	64.0	72	54.8	0	0	---	0.00	30.159 
23:45	64.0	64.0	64.0	72	54.8	0	0	---	0.00	30.157 
23:50	63.9	63.9	63.9	72	54.7	0	0	---	0.00	30.157 
23:55	63.7	63.7	63.7	73	54.9	0	0	---	0.00	30.157 

CoCoRaHS
IN-AL-39
A2 Web Hosting
Creative Commons License
GoDaddy
search engine by freefind advanced

loaded 2018-11-13 21:46:53 • last modified 2010-11-18 10:43:29
Privacy PolicyDisclaimer
• wx.awcolley.com is powered by PmWiki v.2002016 •
• all content (unless otherwise noted) © 2018 A W Colley